RJCH

Hakodate Airport

Hakodate, Japan
TAF RJCH 171713Z 1718/1900 02004KT 9999 FEW020 BKN040 BECMG 1721/1723 34005KT BECMG 1802/1804 28013KT BECMG 1809/1812 03005KT
Issued Valid From Valid To
Nov-17 @ 17:13 UTC
(5 hours ago)
Nov-17 @ 18:00 UTC
(4 hours ago)
Nov-19 @ 00:00 UTC
(-1 days ago)
Expired Click to View Nov-17 @ 18:00 to Nov-17 @ 21:00
TAF RJCH 171713Z 1718/1900 02004KT 9999 FEW020 BKN040
Wind Visibility Clouds
20° at 4 knots 10,000+ meters
  • Few at 2,000' AGL
  • Broken at 4,000' AGL
Becoming Nov-17 @ 21:00 to Nov-18 @ 02:00
BECMG 1721/1723 34005KT
Wind Visibility Clouds
340° at 5 knots 10,000+ meters
  • Few at 2,000' AGL
  • Broken at 4,000' AGL
Becoming Nov-18 @ 02:00 to Nov-18 @ 09:00
BECMG 1802/1804 28013KT
Wind Visibility Clouds
280° at 13 knots 10,000+ meters
  • Few at 2,000' AGL
  • Broken at 4,000' AGL
Becoming Nov-18 @ 09:00 to Nov-19 @ 00:00
BECMG 1809/1812 03005KT
Wind Visibility Clouds
30° at 5 knots 10,000+ meters
  • Few at 2,000' AGL
  • Broken at 4,000' AGL
TAF RJCH 171713Z 1718/1900 02004KT 9999 FEW020 BKN040 BECMG 1721/1723 34005KT BECMG 1802/1804 28013KT BECMG 1809/1812 03005KT
Issued Nov-17 @ 17:13 UTC
(5 hours ago)
Valid From Nov-17 @ 18:00 UTC
(4 hours ago)
Valid To Nov-19 @ 00:00 UTC
(-1 days ago)
Nov-17 @ 18:00 - Nov-17 @ 21:00
Wind Visibility
20° at 4 knots 10,000+ meters
Clouds
  • Few at 2,000' AGL
  • Broken at 4,000' AGL
Becoming Nov-17 @ 21:00 - Nov-18 @ 02:00
Wind Visibility
340° at 5 knots 10,000+ meters
Clouds
  • Few at 2,000' AGL
  • Broken at 4,000' AGL
Becoming Nov-18 @ 02:00 - Nov-18 @ 09:00
Wind Visibility
280° at 13 knots 10,000+ meters
Clouds
  • Few at 2,000' AGL
  • Broken at 4,000' AGL
Becoming Nov-18 @ 09:00 - Nov-19 @ 00:00
Wind Visibility
30° at 5 knots 10,000+ meters
Clouds
  • Few at 2,000' AGL
  • Broken at 4,000' AGL